Time;durP1;ratioP1;P1;durP2;ratioP2;P2;SDS_P1;SDS_P2;PMS_P1;PMS_P2;Temp;Humidity;BMP_temperature;BMP_pressure;BME280_temperature;BME280_humidity;BME280_pressure;Samples;Min_cycle;Max_cycle;Signal;HPM_P1;HPM_P2
2021/08/22 16:23:32;;;;;;;;;0.75;0.75;;;;;23.57;48.08;101774.19;6233277;22;1456153;-69
2021/08/22 16:25:57;;;;;;;;;5.75;1.00;;;;;23.56;48.64;101774.34;6404337;22;46534;-77
2021/08/22 16:28:23;;;;;;;;;3.75;2.00;;;;;23.64;48.17;101778.00;6406303;22;45263;-70
2021/08/22 16:30:49;;;;;;;;;2.50;2.50;;;;;23.80;48.18;101771.09;6406231;22;45674;-73
2021/08/22 16:33:15;;;;;;;;;2.50;1.00;;;;;23.89;48.32;101772.88;6406310;22;45344;-66
2021/08/22 16:35:41;;;;;;;;;2.00;1.00;;;;;23.86;48.59;101774.03;6406466;22;45355;-65
2021/08/22 16:38:06;;;;;;;;;3.50;3.25;;;;;23.80;48.45;101769.25;6406330;22;45278;-63
2021/08/22 16:40:35;;;;;;;;;2.25;2.25;;;;;23.78;48.39;101773.06;6406247;22;45367;-64
2021/08/22 16:43:01;;;;;;;;;2.75;2.00;;;;;23.80;48.56;101774.63;6424901;22;45308;-67
2021/08/22 16:45:27;;;;;;;;;5.75;3.75;;;;;23.89;48.40;101772.88;6405587;22;45278;-62
2021/08/22 16:47:52;;;;;;;;;3.50;2.00;;;;;24.03;48.56;101769.66;6406329;22;45310;-67
2021/08/22 16:50:18;;;;;;;;;2.75;2.75;;;;;24.12;48.20;101768.72;6405480;22;45451;-71
2021/08/22 16:52:43;;;;;;;;;2.00;2.00;;;;;24.23;47.90;101768.47;6406138;22;45469;-71
2021/08/22 16:55:09;;;;;;;;;4.00;4.00;;;;;24.29;47.38;101774.25;6405628;22;45864;-69
2021/08/22 16:57:35;;;;;;;;;20.50;17.00;;;;;24.31;46.53;101777.63;6405604;22;45789;-72
2021/08/22 17:00:03;;;;;;;;;4.75;4.00;;;;;24.32;46.80;101777.50;6403689;22;45325;-74
2021/08/22 17:02:31;;;;;;;;;4.75;3.25;;;;;24.32;47.03;101779.31;6403525;22;45444;-72
2021/08/22 17:04:57;;;;;;;;;5.00;3.50;;;;;24.26;47.32;101783.50;6403651;22;45344;-75
2021/08/22 17:07:23;;;;;;;;;5.25;4.50;;;;;24.25;47.09;101781.78;6404584;22;45288;-72
2021/08/22 17:09:48;;;;;;;;;3.75;3.25;;;;;24.30;47.87;101787.56;6404191;22;45396;-73
2021/08/22 17:12:13;;;;;;;;;4.50;4.50;;;;;24.28;47.75;101780.66;6400241;22;45332;-72
2021/08/22 17:14:39;;;;;;;;;5.00;4.25;;;;;24.32;47.46;101792.78;6405734;22;46137;-70
2021/08/22 17:17:05;;;;;;;;;7.75;5.00;;;;;24.38;48.14;101784.97;6405935;22;45341;-71
2021/08/22 17:19:31;;;;;;;;;4.00;4.00;;;;;24.42;47.63;101796.28;6406176;22;45229;-73
2021/08/22 17:21:58;;;;;;;;;7.50;5.00;;;;;24.43;47.51;101796.13;6404503;22;45191;-67
2021/08/22 17:24:24;;;;;;;;;4.00;4.00;;;;;24.43;47.35;101798.81;6404423;22;46149;-67
2021/08/22 17:26:51;;;;;;;;;4.25;3.75;;;;;24.42;46.92;101794.44;6405314;22;45253;-68
2021/08/22 17:29:16;;;;;;;;;3.00;3.00;;;;;24.42;47.28;101794.44;6405990;22;45205;-62
2021/08/22 17:31:42;;;;;;;;;4.00;3.25;;;;;24.41;47.58;101792.75;6406145;22;45255;-64
2021/08/22 17:34:07;;;;;;;;;4.00;4.00;;;;;24.42;46.66;101807.91;6405878;22;45317;-59
2021/08/22 17:36:33;;;;;;;;;5.50;4.00;;;;;24.41;46.93;101799.97;6403924;22;45167;-59
2021/08/22 17:38:58;;;;;;;;;7.00;4.00;;;;;24.38;47.16;101806.50;6405258;22;45389;-58
2021/08/22 17:41:24;;;;;;;;;3.00;2.75;;;;;24.34;47.19;101807.84;6405389;22;45224;-58
2021/08/22 17:43:49;;;;;;;;;3.50;3.50;;;;;24.35;47.47;101812.22;6405364;22;46045;-58
2021/08/22 17:46:15;;;;;;;;;2.75;2.75;;;;;24.31;46.76;101808.09;6405474;22;45334;-62
2021/08/22 17:48:42;;;;;;;;;5.50;3.50;;;;;24.28;47.27;101807.56;6405660;22;45259;-64
2021/08/22 17:51:08;;;;;;;;;2.00;2.00;;;;;24.27;47.22;101812.13;6405443;22;45373;-64
2021/08/22 17:53:33;;;;;;;;;2.50;2.50;;;;;24.27;46.95;101822.03;6405040;22;45863;-63
2021/08/22 17:55:59;;;;;;;;;5.25;2.75;;;;;24.21;46.89;101821.66;6405377;22;45183;-59
2021/08/22 17:58:25;;;;;;;;;4.25;4.00;;;;;24.19;47.03;101823.66;6405309;22;45310;-61
2021/08/22 18:00:50;;;;;;;;;3.00;2.00;;;;;24.13;46.61;101826.09;6406072;22;45623;-62
2021/08/22 18:03:16;;;;;;;;;4.00;3.50;;;;;24.02;46.23;101818.28;6405527;22;45099;-61
2021/08/22 18:05:42;;;;;;;;;3.75;2.75;;;;;23.89;46.80;101834.78;6403459;22;45300;-63
2021/08/22 18:08:08;;;;;;;;;1.50;1.50;;;;;23.77;46.88;101833.28;6404850;22;45252;-60
2021/08/22 18:10:34;;;;;;;;;5.75;2.25;;;;;23.68;46.97;101835.03;6404805;22;45317;-59
2021/08/22 18:13:02;;;;;;;;;16.25;16.25;;;;;23.61;47.29;101836.63;6405017;22;46200;-62
2021/08/22 18:15:28;;;;;;;;;3.00;3.00;;;;;23.54;47.36;101836.34;6398735;22;45526;-64
2021/08/22 18:17:53;;;;;;;;;4.75;3.75;;;;;23.49;47.62;101843.16;6404687;22;45337;-63
2021/08/22 18:20:19;;;;;;;;;3.25;3.00;;;;;23.42;47.93;101842.91;6404426;22;45488;-64
2021/08/22 18:22:46;;;;;;;;;3.25;3.25;;;;;23.43;48.06;101849.13;6404219;22;45287;-64
2021/08/22 18:25:12;;;;;;;;;4.75;3.25;;;;;23.40;48.49;101850.28;6403915;22;45295;-62
2021/08/22 18:27:41;;;;;;;;;2.75;2.75;;;;;23.35;48.27;101855.25;6404482;22;45349;-60
2021/08/22 18:30:07;;;;;;;;;3.00;3.00;;;;;23.27;48.04;101852.44;6404246;22;45486;-60
2021/08/22 18:32:34;;;;;;;;;3.00;2.50;;;;;23.20;48.43;101857.53;6405211;22;45270;-62
2021/08/22 18:34:59;;;;;;;;;3.00;3.00;;;;;23.15;48.63;101861.69;6406913;22;45307;-63
2021/08/22 18:37:26;;;;;;;;;3.00;2.50;;;;;23.09;48.95;101871.16;6407132;22;45196;-60
2021/08/22 18:39:52;;;;;;;;;3.00;3.00;;;;;23.00;49.28;101864.81;6406698;22;45225;-62
2021/08/22 18:42:19;;;;;;;;;5.75;4.00;;;;;22.93;49.34;101865.53;6405914;22;46049;-62
2021/08/22 18:44:44;;;;;;;;;9.00;6.50;;;;;22.86;49.50;101873.31;6406564;22;45296;-62
2021/08/22 18:47:10;;;;;;;;;3.00;3.00;;;;;22.82;49.49;101871.88;6406286;22;45363;-62
2021/08/22 18:49:35;;;;;;;;;3.25;3.25;;;;;22.77;49.62;101868.78;6406865;22;46548;-62
2021/08/22 18:52:01;;;;;;;;;4.00;3.50;;;;;22.75;49.94;101874.31;6406280;22;45833;-62
2021/08/22 18:54:26;;;;;;;;;4.50;3.25;;;;;22.70;49.80;101879.25;6405742;22;45309;-62
2021/08/22 18:56:52;;;;;;;;;7.50;6.00;;;;;22.66;50.00;101880.50;6406596;22;45329;-62
2021/08/22 18:59:17;;;;;;;;;3.25;3.00;;;;;22.63;50.39;101880.78;6406851;22;45385;-63
2021/08/22 19:01:43;;;;;;;;;2.25;2.00;;;;;22.64;50.18;101887.88;6405886;22;45462;-62
2021/08/22 19:04:09;;;;;;;;;3.25;3.00;;;;;22.58;50.31;101883.91;6406821;22;45222;-62
2021/08/22 19:06:34;;;;;;;;;5.00;3.75;;;;;22.54;50.74;101889.72;6405609;22;45400;-62
2021/08/22 19:09:00;;;;;;;;;4.75;4.75;;;;;22.51;50.99;101903.41;6406800;22;45251;-62
2021/08/22 19:11:27;;;;;;;;;4.25;3.75;;;;;22.45;50.78;101894.09;6406947;22;45196;-62
2021/08/22 19:13:53;;;;;;;;;3.75;3.75;;;;;22.42;51.02;101904.25;6402618;22;45509;-60
2021/08/22 19:16:19;;;;;;;;;5.25;4.00;;;;;22.34;51.14;101904.94;6405576;22;45335;-61
2021/08/22 19:18:44;;;;;;;;;5.00;5.00;;;;;22.29;51.31;101909.91;6406742;22;45454;-61
2021/08/22 19:21:12;;;;;;;;;3.25;3.25;;;;;22.23;51.65;101915.81;6406746;22;45384;-62
2021/08/22 19:23:37;;;;;;;;;5.00;5.00;;;;;22.20;51.70;101925.00;6405536;22;45271;-62
2021/08/22 19:26:03;;;;;;;;;5.75;4.50;;;;;22.19;51.95;101925.09;6405017;22;45194;-62
2021/08/22 19:28:29;;;;;;;;;4.25;3.50;;;;;22.17;51.95;101937.81;6406091;22;45279;-62
2021/08/22 19:30:54;;;;;;;;;3.75;3.25;;;;;22.12;52.12;101938.25;6405258;22;45157;-62
2021/08/22 19:33:20;;;;;;;;;3.75;3.75;;;;;22.11;52.34;101941.91;6405973;22;45096;-62
2021/08/22 19:35:46;;;;;;;;;6.50;3.50;;;;;22.13;52.52;101941.78;6406742;22;45456;-61
2021/08/22 19:38:11;;;;;;;;;4.50;3.50;;;;;22.11;52.60;101952.63;6406372;22;45118;-60
2021/08/22 19:40:37;;;;;;;;;3.00;3.00;;;;;22.07;52.46;101961.06;6406605;22;45953;-63
2021/08/22 19:43:03;;;;;;;;;9.25;5.00;;;;;22.02;52.97;101959.63;6406136;22;45142;-62
2021/08/22 19:45:28;;;;;;;;;5.00;3.25;;;;;22.01;52.83;101971.34;6405285;22;45292;-61
2021/08/22 19:47:54;;;;;;;;;6.50;5.50;;;;;21.96;52.80;101975.41;6406510;22;45461;-61
2021/08/22 19:50:19;;;;;;;;;4.50;4.00;;;;;21.95;53.11;101981.78;6405939;22;45406;-60
2021/08/22 19:52:45;;;;;;;;;7.50;5.00;;;;;21.94;53.26;101990.81;6404970;22;45246;-61
2021/08/22 19:55:11;;;;;;;;;6.50;5.25;;;;;21.89;53.39;101988.53;6406554;22;45707;-59
2021/08/22 19:57:37;;;;;;;;;7.00;5.00;;;;;21.84;53.27;101990.78;6406051;22;45489;-61
2021/08/22 20:00:04;;;;;;;;;6.25;5.00;;;;;21.80;53.79;101992.00;6405564;22;45305;-60
2021/08/22 20:02:32;;;;;;;;;6.00;6.00;;;;;21.76;53.94;101995.94;6405545;22;45196;-61
2021/08/22 20:04:58;;;;;;;;;5.50;4.50;;;;;21.73;53.64;101994.41;6430928;22;45563;-62
2021/08/22 20:07:24;;;;;;;;;7.00;7.00;;;;;21.72;54.21;102002.53;6406683;22;45539;-60
2021/08/22 20:09:49;;;;;;;;;13.75;13.00;;;;;21.69;54.24;101995.63;6405599;22;45408;-59
2021/08/22 20:12:15;;;;;;;;;6.25;4.00;;;;;21.64;54.35;102002.34;6405793;22;45271;-60
2021/08/22 20:14:42;;;;;;;;;5.75;4.00;;;;;21.61;54.46;101999.94;6406726;22;45410;-59
2021/08/22 20:17:10;;;;;;;;;4.75;4.00;;;;;21.58;54.60;102000.22;6406730;22;45296;-60
2021/08/22 20:19:41;;;;;;;;;4.50;4.50;;;;;21.53;54.83;102008.66;6405535;22;46094;-61
2021/08/22 20:22:07;;;;;;;;;5.50;4.00;;;;;21.50;54.88;102010.75;6406317;22;45390;-62
2021/08/22 20:24:35;;;;;;;;;5.00;4.00;;;;;21.44;54.89;102010.28;6405498;22;45424;-61
2021/08/22 20:27:02;;;;;;;;;5.50;4.50;;;;;21.39;55.30;102011.66;6405384;22;45457;-61
2021/08/22 20:29:27;;;;;;;;;4.75;4.00;;;;;21.36;55.51;102012.78;6405214;22;46212;-60
2021/08/22 20:31:54;;;;;;;;;4.75;4.75;;;;;21.32;55.34;101999.75;6405996;22;45097;-60
2021/08/22 20:34:19;;;;;;;;;5.50;5.25;;;;;21.29;55.55;102006.22;6406072;22;45485;-60
2021/08/22 20:36:45;;;;;;;;;10.25;6.00;;;;;21.25;55.46;101998.53;6406116;22;45337;-59
2021/08/22 20:39:11;;;;;;;;;8.25;3.50;;;;;21.25;55.82;101999.41;6406121;22;45457;-59
2021/08/22 20:41:36;;;;;;;;;6.00;5.00;;;;;21.22;55.95;101996.97;6405866;22;45343;-61
2021/08/22 20:44:02;;;;;;;;;7.75;4.50;;;;;21.22;56.16;102001.47;6406450;22;45281;-61
2021/08/22 20:46:28;;;;;;;;;6.75;5.00;;;;;21.22;55.90;101998.81;6406447;22;45346;-63
2021/08/22 20:48:53;;;;;;;;;8.50;7.00;;;;;21.16;56.01;101995.66;6406240;22;45353;-61
2021/08/22 20:51:19;;;;;;;;;13.25;10.25;;;;;21.16;56.04;102002.84;6405466;22;45212;-59
2021/08/22 20:53:44;;;;;;;;;13.00;13.00;;;;;21.13;56.09;102001.28;6405512;22;45241;-59
2021/08/22 20:56:10;;;;;;;;;12.50;7.50;;;;;21.11;56.50;102000.56;6406446;22;45226;-62
2021/08/22 20:58:35;;;;;;;;;8.00;5.25;;;;;21.10;56.50;102003.38;6405889;22;45265;-63
2021/08/22 21:01:01;;;;;;;;;4.75;4.75;;;;;21.11;56.51;102007.75;6405730;22;45221;-61
2021/08/22 21:03:27;;;;;;;;;5.50;5.50;;;;;21.10;56.46;102003.38;6404199;22;45244;-59
2021/08/22 21:05:52;;;;;;;;;6.75;6.00;;;;;21.06;56.46;102010.81;6406210;22;45479;-60
2021/08/22 21:08:18;;;;;;;;;6.00;5.00;;;;;21.05;56.61;102005.59;6404755;22;45921;-60
2021/08/22 21:10:43;;;;;;;;;7.75;6.00;;;;;21.02;56.69;102004.00;6405687;22;45167;-60
2021/08/22 21:13:09;;;;;;;;;7.00;6.00;;;;;21.01;56.73;102009.47;6405468;22;45349;-61
2021/08/22 21:15:34;;;;;;;;;4.50;4.50;;;;;20.99;56.79;102008.75;6406140;22;45388;-61
2021/08/22 21:18:00;;;;;;;;;5.00;4.00;;;;;20.96;57.21;102019.75;6405886;22;45185;-61
2021/08/22 21:20:27;;;;;;;;;7.50;6.00;;;;;20.95;57.24;102018.06;6405956;22;45369;-61
2021/08/22 21:22:54;;;;;;;;;8.75;5.75;;;;;20.94;57.32;102029.75;6405121;22;45499;-60
2021/08/22 21:25:19;;;;;;;;;6.00;6.00;;;;;20.91;57.57;102018.28;6404651;22;45197;-60
2021/08/22 21:27:45;;;;;;;;;6.00;6.00;;;;;20.92;57.32;102024.50;6405463;22;45269;-59
2021/08/22 21:30:11;;;;;;;;;7.50;6.25;;;;;20.87;57.47;102018.69;6406100;22;45251;-62
2021/08/22 21:32:38;;;;;;;;;5.00;5.00;;;;;20.85;57.71;102029.53;6405682;22;45140;-61
2021/08/22 21:35:04;;;;;;;;;7.00;6.00;;;;;20.84;58.10;102021.59;6405694;22;45480;-59
2021/08/22 21:37:30;;;;;;;;;5.25;4.50;;;;;20.83;57.63;102028.78;6405430;22;46369;-63
2021/08/22 21:39:57;;;;;;;;;6.00;6.00;;;;;20.80;57.96;102028.19;6404569;22;45405;-60
2021/08/22 21:42:23;;;;;;;;;9.00;6.00;;;;;20.78;57.93;102031.00;6404413;22;45260;-59
2021/08/22 21:44:48;;;;;;;;;5.25;5.00;;;;;20.78;58.02;102032.84;6405829;22;45202;-61
2021/08/22 21:47:14;;;;;;;;;7.00;6.25;;;;;20.79;57.98;102029.19;6405343;22;45731;-63
2021/08/22 21:49:41;;;;;;;;;6.00;6.00;;;;;20.80;57.85;102028.19;6405900;22;45234;-59
2021/08/22 21:52:07;;;;;;;;;7.00;6.00;;;;;20.79;58.42;102027.34;6405329;22;45330;-59
2021/08/22 21:54:34;;;;;;;;;6.00;5.00;;;;;20.77;58.45;102023.91;6404708;22;45444;-60
2021/08/22 21:57:02;;;;;;;;;6.00;4.00;;;;;20.74;58.18;102021.50;6404242;22;45521;-62
2021/08/22 21:59:27;;;;;;;;;7.75;6.50;;;;;20.73;58.59;102018.97;6405705;22;45275;-61
2021/08/22 22:01:53;;;;;;;;;10.50;6.75;;;;;20.70;58.82;102022.75;6405248;22;45233;-63
2021/08/22 22:04:19;;;;;;;;;5.00;5.00;;;;;20.66;58.70;102021.28;6405646;22;45508;-59
2021/08/22 22:06:44;;;;;;;;;7.25;6.50;;;;;20.68;58.68;102008.59;6405430;22;46103;-63
2021/08/22 22:09:10;;;;;;;;;4.75;3.75;;;;;20.69;58.53;102012.97;6406850;22;45275;-60
2021/08/22 22:11:35;;;;;;;;;7.00;5.50;;;;;20.70;58.78;102014.72;6406519;22;45279;-60
2021/08/22 22:14:01;;;;;;;;;7.00;5.75;;;;;20.71;58.98;102015.56;6407591;22;45241;-59
2021/08/22 22:16:26;;;;;;;;;4.00;3.25;;;;;20.71;58.85;102018.25;6407046;22;45939;-59
2021/08/22 22:18:52;;;;;;;;;11.25;7.00;;;;;20.70;59.11;102017.41;6407403;22;45162;-60
2021/08/22 22:21:17;;;;;;;;;8.75;7.00;;;;;20.65;59.23;102024.09;6406690;22;45181;-60
2021/08/22 22:23:45;;;;;;;;;10.50;6.75;;;;;20.64;59.24;102017.88;6406585;22;45179;-61
2021/08/22 22:26:11;;;;;;;;;8.75;8.75;;;;;20.65;59.13;102021.41;6405591;22;46101;-62
2021/08/22 22:28:36;;;;;;;;;17.00;12.75;;;;;20.62;59.53;102015.34;6404978;22;45206;-57
2021/08/22 22:31:02;;;;;;;;;11.75;11.25;;;;;20.60;59.40;102021.78;6406962;22;45287;-63
2021/08/22 22:33:28;;;;;;;;;8.50;6.75;;;;;20.59;59.73;102014.72;6406944;22;45612;-60
2021/08/22 22:35:54;;;;;;;;;5.25;5.25;;;;;20.57;59.52;102027.38;6406606;22;45829;-60
2021/08/22 22:38:20;;;;;;;;;8.75;7.00;;;;;20.54;59.61;102015.13;6431618;22;45303;-62
2021/08/22 22:40:46;;;;;;;;;5.25;5.25;;;;;20.52;59.62;102018.88;6407057;22;45177;-61
2021/08/22 22:43:12;;;;;;;;;7.00;4.75;;;;;20.49;59.84;102014.63;6406689;22;45519;-62
2021/08/22 22:45:37;;;;;;;;;8.50;5.00;;;;;20.51;60.10;102025.19;6406409;22;45275;-65
2021/08/22 22:48:03;;;;;;;;;8.75;7.00;;;;;20.48;60.41;102023.63;6406801;22;45211;-64
2021/08/22 22:50:29;;;;;;;;;4.00;4.00;;;;;20.44;60.27;102022.16;6406904;22;45405;-61
2021/08/22 22:52:55;;;;;;;;;7.25;5.00;;;;;20.41;60.49;102025.06;6410491;22;45427;-62
2021/08/22 22:55:20;;;;;;;;;8.50;5.75;;;;;20.39;60.49;102023.50;6406757;22;45321;-60
2021/08/22 22:57:46;;;;;;;;;7.00;7.00;;;;;20.36;60.54;102027.25;6406667;22;45305;-61
2021/08/22 23:00:12;;;;;;;;;8.75;7.00;;;;;20.35;60.52;102026.41;6406890;22;45257;-60
2021/08/22 23:02:38;;;;;;;;;8.50;6.75;;;;;20.36;60.97;102029.94;6406454;22;45246;-60
2021/08/22 23:05:03;;;;;;;;;25.75;20.00;;;;;20.35;60.89;102028.22;6406421;22;46049;-60
2021/08/22 23:07:29;;;;;;;;;6.25;5.00;;;;;20.29;60.60;102026.88;6406890;22;45186;-60
2021/08/22 23:09:54;;;;;;;;;7.00;6.25;;;;;20.26;60.95;102024.47;6406497;22;45272;-63
2021/08/22 23:12:20;;;;;;;;;7.50;5.75;;;;;20.27;60.81;102026.16;6405915;22;45509;-62
2021/08/22 23:14:45;;;;;;;;;7.25;6.00;;;;;20.31;61.20;102024.09;6406805;22;45271;-64
2021/08/22 23:17:11;;;;;;;;;7.00;6.75;;;;;20.33;60.86;102025.69;6407127;22;45137;-62
2021/08/22 23:19:37;;;;;;;;;6.00;5.00;;;;;20.35;60.91;102030.91;6406552;22;45238;-61
2021/08/22 23:22:02;;;;;;;;;10.00;7.00;;;;;20.39;60.97;102039.56;6406831;22;45502;-61
2021/08/22 23:24:28;;;;;;;;;8.75;7.25;;;;;20.38;61.39;102030.69;6405544;22;46272;-60
2021/08/22 23:26:53;;;;;;;;;8.00;5.00;;;;;20.38;61.09;102032.47;6406180;22;45196;-62
2021/08/22 23:29:19;;;;;;;;;6.00;5.00;;;;;20.38;60.93;102033.34;6407198;22;45273;-62
2021/08/22 23:31:44;;;;;;;;;6.50;6.00;;;;;20.36;61.10;102038.81;6406089;22;45524;-63
2021/08/22 23:34:10;;;;;;;;;9.50;6.25;;;;;20.39;61.40;102036.88;6404104;22;45324;-61
2021/08/22 23:36:35;;;;;;;;;7.00;5.00;;;;;20.40;61.42;102031.41;6406930;22;45220;-61
2021/08/22 23:39:01;;;;;;;;;8.25;6.75;;;;;20.41;60.87;102033.09;6406750;22;45154;-61
2021/08/22 23:41:26;;;;;;;;;9.50;7.50;;;;;20.43;61.39;102035.66;6406622;22;45344;-61
2021/08/22 23:43:52;;;;;;;;;8.00;6.75;;;;;20.43;61.29;102030.28;6406539;22;45311;-58
2021/08/22 23:46:17;;;;;;;;;7.00;5.00;;;;;20.38;61.12;102032.47;6404539;22;45356;-62
2021/08/22 23:48:43;;;;;;;;;10.00;7.25;;;;;20.32;61.73;102028.47;6406708;22;45181;-60
2021/08/22 23:51:10;;;;;;;;;5.00;4.00;;;;;20.30;61.57;102030.41;6406607;22;45459;-63
2021/08/22 23:53:37;;;;;;;;;4.75;4.75;;;;;20.28;61.76;102024.34;6405073;22;46144;-63
2021/08/22 23:56:03;;;;;;;;;5.25;5.25;;;;;20.30;61.46;102031.28;6405853;22;45212;-61
2021/08/22 23:58:29;;;;;;;;;6.50;5.00;;;;;20.30;61.85;102028.63;6406373;22;45312;-61
